• Join FlightAware (Why Join?)
  • Login
  • US Flag 
05:30PM EDT


 

Airport Tracker/Info


-or-


 

Live Flight TrackerFlight Track Log ✈ UAL1020 ✈ 02-Jul-2013 ✈ KIAH - MMUN / CUN

Flight Track Log - Related Links

Times and Time Zones

All times are in EDT time to prevent confusion due to time zone crossing. See the UAL1020 flight status page for this flight to view local times or setup timezone preferences in your user account.

Time Position Orientation Groundspeed Altitude Reporting Facility
EDT Latitude Longitude Course Direction KTS MPH feet Rate Location/Type
05:05PM 29.9567 -95.3375 197° South 173 199 900  Level FlightAware ADS-B
05:05PM 29.9491 -95.3281 133° Southeast 184 212 1,300 1,440 Climbing FlightAware ADS-B
05:06PM 29.9398 -95.3152 130° Southeast 202 232 1,600 1,320 Climbing FlightAware ADS-B
05:06PM 29.9302 -95.3018 130° Southeast 224 258 2,000 2,160 Climbing FlightAware ADS-B
05:06PM 29.9201 -95.2876 129° Southeast 228 262 2,700 2,880 Climbing FlightAware ADS-B
05:06PM 29.9096 -95.2733 130° Southeast 228 262 3,500 2,460 Climbing FlightAware ADS-B
05:07PM 29.8985 -95.2583 130° Southeast 241 277 4,000 960 Climbing FlightAware ADS-B
05:07PM 29.8863 -95.2421 131° Southeast 265 305 4,000  Level FlightAware ADS-B
05:07PM 29.8740 -95.2253 130° Southeast 270 311 4,000  Level FlightAware ADS-B
05:07PM 29.8612 -95.2080 130° Southeast 272 313 4,000  Level FlightAware ADS-B
05:08PM 29.8523 -95.1961 131° Southeast 272 313 4,000 420 Level FlightAware ADS-B
05:08PM 29.8399 -95.1790 130° Southeast 271 312 4,200 1,380 Climbing FlightAware ADS-B
05:08PM 29.8274 -95.1617 130° Southeast 275 316 4,700 2,460 Climbing FlightAware ADS-B
05:08PM 29.8147 -95.1446 131° Southeast 275 316 5,500 3,420 Climbing FlightAware ADS-B
05:09PM 29.8067 -95.1336 130° Southeast 275 316 6,200 3,900 Climbing FlightAware ADS-B
05:09PM 29.7980 -95.1217 130° Southeast 278 320 6,800 3,180 Climbing FlightAware ADS-B
05:09PM 29.7849 -95.1036 130° Southeast 286 329 7,600 2,820 Climbing FlightAware ADS-B
05:09PM 29.7586 -95.0677 130° Southeast 296 341 9,000 2,880 Climbing FlightAware ADS-B
05:10PM 29.7451 -95.0492 130° Southeast 299 344 9,800 3,000 Climbing FlightAware ADS-B
05:10PM 29.7387 -95.0407 131° Southeast 302 348 10,100 2,400 Climbing FlightAware ADS-B
05:10PM 29.7300 -95.0318 141° Southeast 307 353 10,400 1,860 Climbing FlightAware ADS-B
05:10PM 29.7204 -95.0242 145° Southeast 319 367 10,600 1,500 Climbing FlightAware ADS-B
05:10PM 29.7101 -95.0178 152° Southeast 326 375 10,800 2,220 Climbing FlightAware ADS-B
05:11PM 29.6105 -94.9829 164° South 360 414 13,400 2,340 Climbing FlightAware ADS-B
05:12PM 29.5607 -94.9661 164° South 371 427 14,600 2,460 Climbing FlightAware ADS-B
05:12PM 29.4976 -94.9447 164° South 383 441 16,200 2,580 Climbing FlightAware ADS-B
05:13PM 29.4444 -94.9267 164° South 386 444 17,600 2,520 Climbing FlightAware ADS-B
05:13PM 29.4037 -94.9127 163° South 391 450 18,500 2,460 Climbing FlightAware ADS-B
05:13PM 29.3936 -94.9078 157° South 394 453 18,800 2,280 Climbing FlightAware ADS-B
05:14PM 29.3827 -94.9009 151° Southeast 397 457 19,000 2,220 Climbing FlightAware ADS-B
05:14PM 29.3702 -94.8908 145° Southeast 401 461 19,400 2,220 Climbing FlightAware ADS-B
05:14PM 29.3492 -94.8673 133° Southeast 410 472 19,900 1,560 Climbing FlightAware ADS-B
05:14PM 29.3121 -94.8150 129° Southeast 427 491 20,600 1,560 Climbing FlightAware ADS-B
05:15PM 29.2738 -94.7613 129° Southeast 438 504 21,500 2,040 Climbing FlightAware ADS-B
05:15PM 29.2343 -94.7065 130° Southeast 441 507 22,700 2,160 Climbing FlightAware ADS-B
05:16PM 29.1949 -94.6518 130° Southeast 442 509 23,700 1,920 Climbing FlightAware ADS-B
05:17PM 29.1554 -94.5973 130° Southeast 448 516 24,700 1,860 Climbing FlightAware ADS-B
05:17PM 29.1154 -94.5420 130° Southeast 451 519 25,600 1,680 Climbing FlightAware ADS-B
05:18PM 29.0741 -94.4851 130° Southeast 457 526 26,400 1,440 Climbing FlightAware ADS-B
05:18PM 29.0327 -94.4281 130° Southeast 463 533 27,100 1,440 Climbing FlightAware ADS-B
05:19PM 28.9909 -94.3706 130° Southeast 467 537 27,900 1,440 Climbing FlightAware ADS-B
05:19PM 28.9479 -94.3116 130° Southeast 471 542 28,600 1,320 Climbing FlightAware ADS-B
05:20PM 28.9056 -94.2536 130° Southeast 474 545 29,300 1,560 Climbing FlightAware ADS-B
05:20PM 28.8635 -94.1959 130° Southeast 473 544 30,200 1,920 Climbing FlightAware ADS-B
05:21PM 28.8207 -94.1371 130° Southeast 465 535 31,300 1,920 Climbing FlightAware ADS-B
05:21PM 28.7781 -94.0788 130° Southeast 459 528 32,200 1,620 Climbing FlightAware ADS-B
05:22PM 28.7362 -94.0219 130° Southeast 457 526 33,000 1,500 Climbing FlightAware ADS-B
05:22PM 28.6937 -93.9646 130° Southeast 454 522 33,800 1,320 Climbing FlightAware ADS-B
05:23PM 28.6531 -93.9095 130° Southeast 452 520 34,400 1,080 Climbing FlightAware ADS-B
05:23PM 28.6119 -93.8535 130° Southeast 455 524 34,900 840 Climbing FlightAware ADS-B
05:24PM 28.5677 -93.7934 130° Southeast 459 528 35,300 720 Climbing FlightAware ADS-B
05:24PM 28.5232 -93.7330 130° Southeast 462 532 35,700 780 Climbing FlightAware ADS-B
05:25PM 28.4762 -93.6692 130° Southeast 464 534 36,200 720 Climbing FlightAware ADS-B
05:25PM 28.4332 -93.6112 130° Southeast 466 536 36,500 660 Climbing FlightAware ADS-B
05:26PM 28.3909 -93.5542 130° Southeast 467 537 36,900 300 Climbing FlightAware ADS-B
05:27PM 28.3150 -93.4522 130° Southeast 464 534 37,000 60 Climbing FlightAware ADS-B
05:27PM 28.2719 -93.3945 130° Southeast 458 527 37,000  Level FlightAware ADS-B
05:28PM 28.2066 -93.3083 131° Southeast 457 526 37,000  Level FlightAware ADS-B
05:29PM 28.1601 -93.2462 130° Southeast 457 526 37,000  Level FlightAware ADS-B
05:29PM 28.1191 -93.1913 130° Southeast 456 525 37,000  Level FlightAware ADS-B
05:30PM 28.0353 -93.0787 130° Southeast 456 525 37,000 -60 Level FlightAware ADS-B
05:31PM 27.9450 -92.9558 130° Southeast 456 525 36,900  Descending Houston Center
05:32PM 27.8472 -92.8269 131° Southeast 453 521 37,000  Climbing Houston Center
05:34PM 27.7656 -92.7200 131° Southeast 450 518 37,000  Level Houston Center
05:35PM 27.6858 -92.6133 130° Southeast 447 514 37,000  Level Houston Center
05:36PM 27.6047 -92.5100 132° Southeast 443 510 37,000  Level Houston Center
05:37PM 27.5250 -92.4061 131° Southeast 439 505 37,000  Level Houston Center
05:38PM 27.4461 -92.3028 131° Southeast 436 502 37,000  Level Houston Center
05:39PM 27.3519 -92.1789 131° Southeast 434 499 37,000  Level Houston Center
05:40PM 27.2731 -92.0769 131° Southeast 434 499 37,000  Level Houston Center
05:41PM 27.1936 -91.9744 131° Southeast 435 501 37,000  Level Houston Center
05:42PM 27.1014 -91.8931 142° Southeast 426 490 37,000  Level Houston Center
05:43PM 27.0003 -91.8292 151° Southeast 421 484 37,000  Level Houston Center
05:44PM 26.8658 -91.8556 190° South 404 465 37,000  Level Houston Center
05:45PM 26.7556 -91.8706 187° South 402 463 37,000  Level Houston Center
05:46PM 26.6572 -91.8856 188° South 401 461 37,000  Level Houston Center
05:48PM 26.5224 -91.7582 140° Southeast  Level Estimated
05:55PM 25.9189 -91.1929 140° Southeast  Level Estimated
05:56PM 25.8325 -91.1126 140° Southeast  Level Estimated
05:57PM 25.7461 -91.0324 140° Southeast  Level Estimated
05:58PM 25.6596 -90.9524 140° Southeast  Level Estimated
05:59PM 25.5731 -90.8724 140° Southeast  Level Estimated
06:00PM 25.4865 -90.7926 140° Southeast  Level Estimated
06:01PM 25.3999 -90.7129 140° Southeast  Level Estimated
06:02PM 25.3132 -90.6333 140° Southeast  Level Estimated
06:03PM 25.2265 -90.5538 140° Southeast  Level Estimated
06:04PM 25.1398 -90.4745 140° Southeast  Level Estimated
06:05PM 25.0530 -90.3952 140° Southeast  Level Estimated
06:06PM 24.9662 -90.3161 140° Southeast  Level Estimated
06:07PM 24.8793 -90.2370 140° Southeast  Level Estimated
06:08PM 24.7924 -90.1581 140° Southeast  Level Estimated
06:09PM 24.7054 -90.0793 141° Southeast  Level Estimated
06:10PM 24.6184 -90.0006 141° Southeast  Level Estimated
06:11PM 24.5314 -89.9220 141° Southeast  Level Estimated
06:12PM 24.4443 -89.8435 141° Southeast  Level Estimated
06:13PM 24.3572 -89.7652 141° Southeast  Level Estimated
06:14PM 24.2700 -89.6869 141° Southeast  Level Estimated
06:15PM 24.1828 -89.6087 141° Southeast  Level Estimated
06:16PM 24.0956 -89.5307 141° Southeast  Level Estimated
06:17PM 24.0083 -89.4528 141° Southeast  Level Estimated
06:17PM 23.8060 -89.3260 141° Southeast 423 487 37,000  Level FlightAware
06:18PM 23.9210 -89.3749 141° Southeast  Level Estimated
06:18PM 23.7600 -89.2900 144° Southeast 423 487 37,000  Level FlightAware
06:19PM 23.6830 -89.2340 146° Southeast 420 483 37,000  Level FlightAware
06:20PM 23.6000 -89.1720 146° Southeast 421 484 37,000  Level FlightAware
06:20PM 23.5370 -89.1240 145° Southeast 421 484 37,000  Level FlightAware
06:21PM 23.4630 -89.0690 146° Southeast 424 488 37,000  Level FlightAware
06:22PM 23.3930 -89.0170 146° Southeast 424 488 37,000  Level FlightAware
06:22PM 23.3320 -88.9720 146° Southeast 423 487 37,000  Level FlightAware
06:23PM 23.2340 -88.8990 146° Southeast 422 486 37,000  Level FlightAware
06:24PM 23.1500 -88.8370 146° Southeast 421 484 37,000  Level FlightAware
06:25PM 23.0790 -88.7840 146° Southeast 424 488 37,000  Level FlightAware
06:25PM 23.0290 -88.7470 146° Southeast 424 488 37,000  Level FlightAware
06:26PM 22.9550 -88.6920 146° Southeast 425 489 37,000  Level FlightAware
06:27PM 22.8820 -88.6380 146° Southeast 425 489 37,000  Level FlightAware
06:27PM 22.8390 -88.6060 146° Southeast 424 488 37,000  Level FlightAware
06:28PM 22.7600 -88.5480 146° Southeast 424 488 37,000  Level FlightAware
06:29PM 22.6900 -88.4960 146° Southeast 425 489 37,000  Level FlightAware
06:30PM 22.6070 -88.4360 146° Southeast 424 488 37,000  Level FlightAware
06:30PM 22.5410 -88.3870 146° Southeast 423 487 37,000  Level FlightAware
06:31PM 22.4590 -88.3270 146° Southeast 419 482 37,000  Level FlightAware
06:32PM 22.3920 -88.2780 146° Southeast 417 480 37,000  Level FlightAware
06:32PM 22.3500 -88.2470 146° Southeast 416 479 37,000  Level FlightAware
06:33PM 22.2570 -88.1800 146° Southeast 416 479 37,000 -600 Level FlightAware
06:34PM 22.1610 -88.1040 144° Southeast 412 474 35,900 -1,800 Descending FlightAware
06:35PM 22.1140 -88.0560 137° Southeast 423 487 34,200 -3,120 Descending FlightAware
06:36PM 22.0520 -87.9930 137° Southeast 438 504 32,000 -2,820 Descending FlightAware
06:37PM 21.9700 -87.9090 136° Southeast 441 507 29,500 -2,400 Descending FlightAware
06:37PM 21.9130 -87.8510 137° Southeast 432 497 28,200 -2,160 Descending FlightAware
06:38PM 21.8580 -87.7940 136° Southeast 425 489 26,900 -2,340 Descending FlightAware
06:39PM 21.7610 -87.6960 137° Southeast 414 476 24,500 -2,460 Descending FlightAware
06:39PM 21.7150 -87.6490 136° Southeast 410 472 23,300 -2,160 Descending FlightAware
06:40PM 21.6450 -87.5770 136° Southeast 403 464 21,600 -2,100 Descending FlightAware
06:41PM 21.5910 -87.5230 137° Southeast 396 456 20,200 -2,040 Descending FlightAware
06:41PM 21.5440 -87.4750 136° Southeast 387 445 19,000 -1,980 Descending FlightAware
06:42PM 21.4840 -87.4150 137° Southeast 377 434 17,500 -1,860 Descending FlightAware
06:43PM 21.4340 -87.3650 137° Southeast 369 425 16,200 -1,920 Descending FlightAware
06:44PM 21.3820 -87.3110 136° Southeast 360 414 14,800 -1,980 Descending FlightAware
06:44PM 21.3410 -87.2710 138° Southeast 353 406 13,800 -1,980 Descending FlightAware
06:45PM 21.2840 -87.2130 137° Southeast 342 394 12,300 -1,440 Descending FlightAware
06:46PM 21.2350 -87.1630 136° Southeast 310 357 11,700 -1,020 Descending FlightAware
06:46PM 21.2100 -87.1170 120° Southeast 298 343 11,000 -1,320 Descending FlightAware
06:47PM 21.1870 -87.0600 113° Southeast 293 337 10,000 -1,500 Descending FlightAware
06:47PM 21.1730 -87.0250 113° Southeast 290 334 9,300 -1,080 Descending FlightAware
06:48PM 21.1580 -86.9870 113° Southeast 275 316 9,000 -540 Descending FlightAware
06:48PM 21.1440 -86.9530 114° Southeast 256 295 8,800 -480 Descending FlightAware
06:49PM 21.1320 -86.9230 113° Southeast 236 272 8,600 -900 Descending FlightAware
06:49PM 21.1200 -86.8940 114° Southeast 235 270 8,000 -1,020 Descending FlightAware
06:50PM 21.1090 -86.8650 112° Southeast 212 244 7,700 -900 Descending FlightAware
06:50PM 21.1000 -86.8380 110° East 202 232 7,200 -1,320 Descending FlightAware
06:51PM 21.0930 -86.8180 111° Southeast 201 231 6,600 -1,860 Descending FlightAware
06:51PM 21.0830 -86.7910 112° Southeast 202 232 5,700 -1,740 Descending FlightAware
06:51PM 21.0730 -86.7660 113° Southeast 197 227 5,000 -1,500 Descending FlightAware
06:52PM 21.0620 -86.7430 117° Southeast 193 222 4,300 -1,680 Descending FlightAware
06:52PM 21.0520 -86.7370 151° Southeast 192 221 3,900 -1,800 Descending FlightAware
06:53PM 21.0310 -86.7240 150° Southeast 195 224 3,100 -1,500 Descending FlightAware
06:53PM 21.0110 -86.7130 153° Southeast 194 223 2,600 -600 Descending FlightAware
06:54PM 20.9790 -86.6950 152° Southeast 180 207 2,400 -600 Descending FlightAware
06:54PM 20.9610 -86.7110 220° Southwest 188 216 1,900 -660 Descending FlightAware
06:54PM 20.9600 -86.7220 264° West 189 217 2,000 -300 Climbing FlightAware
06:55PM 20.9620 -86.7520 274° West 190 219 1,700 -840 Descending FlightAware
06:55PM 20.9680 -86.7650 296° West 189 217 1,400 -540 Descending FlightAware
06:56PM 20.9880 -86.7970 304° West 174 200 1,200 -480 Descending FlightAware
06:57PM 21.0070 -86.8310 301° West 168 193 700 -600 Descending FlightAware
06:57PM 21.0180 -86.8470 306° West 157 181 400 -420 Descending FlightAware
06:58PM 21.0290 -86.8660 302° West 157 181 300 -240 Descending FlightAware
07:00PM 21.0167 -86.8667 137° Southeast  Level FlightAware Approximate
07:01PM 21.0365 -86.8771 137° Southeast  Level Estimated
07:02PM 21.0365 -86.8771 137° Southeast  Level Estimated
07:03PM 21.0365 -86.8771 137° Southeast  Level Estimated
07:04PM 21.0365 -86.8771 137° Southeast  Level Estimated
07:05PM 21.0365 -86.8771 137° Southeast  Level Estimated
07:06PM 21.0365 -86.8771 137° Southeast  Level Estimated